sensor_id;sensor_type;location;lat;lon;timestamp;P1;durP1;ratioP1;P2;durP2;ratioP2
11572;SDS011;5842;52.426;4.886;2023-04-01T00:01:20;28.17;;;10.00;;
11572;SDS011;5842;52.426;4.886;2023-04-01T00:03:49;27.17;;;8.50;;
11572;SDS011;5842;52.426;4.886;2023-04-01T00:06:17;22.47;;;8.47;;
11572;SDS011;5842;52.426;4.886;2023-04-01T00:08:45;24.43;;;7.37;;
11572;SDS011;5842;52.426;4.886;2023-04-01T00:11:13;20.93;;;7.53;;
11572;SDS011;5842;52.426;4.886;2023-04-01T00:13:41;19.40;;;6.77;;
11572;SDS011;5842;52.426;4.886;2023-04-01T00:16:08;21.10;;;6.93;;
11572;SDS011;5842;52.426;4.886;2023-04-01T00:18:36;18.13;;;6.30;;
11572;SDS011;5842;52.426;4.886;2023-04-01T00:21:07;18.47;;;5.83;;
11572;SDS011;5842;52.426;4.886;2023-04-01T00:23:35;17.00;;;5.43;;
11572;SDS011;5842;52.426;4.886;2023-04-01T00:26:02;12.17;;;5.13;;
11572;SDS011;5842;52.426;4.886;2023-04-01T00:28:30;12.73;;;4.37;;
11572;SDS011;5842;52.426;4.886;2023-04-01T00:30:58;11.43;;;4.30;;
11572;SDS011;5842;52.426;4.886;2023-04-01T00:33:25;13.03;;;4.67;;
11572;SDS011;5842;52.426;4.886;2023-04-01T00:35:53;13.13;;;4.60;;
11572;SDS011;5842;52.426;4.886;2023-04-01T00:38:22;9.63;;;3.93;;
11572;SDS011;5842;52.426;4.886;2023-04-01T00:40:49;12.67;;;4.33;;
11572;SDS011;5842;52.426;4.886;2023-04-01T00:43:17;10.80;;;4.13;;
11572;SDS011;5842;52.426;4.886;2023-04-01T00:45:46;12.77;;;4.70;;
11572;SDS011;5842;52.426;4.886;2023-04-01T00:48:14;10.57;;;5.37;;
11572;SDS011;5842;52.426;4.886;2023-04-01T00:50:44;13.67;;;5.43;;
11572;SDS011;5842;52.426;4.886;2023-04-01T00:53:13;14.60;;;6.23;;
11572;SDS011;5842;52.426;4.886;2023-04-01T00:55:42;15.97;;;7.10;;
11572;SDS011;5842;52.426;4.886;2023-04-01T00:58:12;18.17;;;7.77;;
11572;SDS011;5842;52.426;4.886;2023-04-01T01:00:40;18.23;;;8.60;;
11572;SDS011;5842;52.426;4.886;2023-04-01T01:03:08;17.47;;;9.43;;
11572;SDS011;5842;52.426;4.886;2023-04-01T01:05:40;22.30;;;10.57;;
11572;SDS011;5842;52.426;4.886;2023-04-01T01:08:12;27.43;;;11.80;;
11572;SDS011;5842;52.426;4.886;2023-04-01T01:10:44;26.83;;;11.83;;
11572;SDS011;5842;52.426;4.886;2023-04-01T01:13:17;26.57;;;11.47;;
11572;SDS011;5842;52.426;4.886;2023-04-01T01:15:46;31.43;;;12.60;;
11572;SDS011;5842;52.426;4.886;2023-04-01T01:18:16;29.70;;;12.50;;
11572;SDS011;5842;52.426;4.886;2023-04-01T01:29:15;23.70;;;12.57;;
11572;SDS011;5842;52.426;4.886;2023-04-01T01:31:46;26.37;;;13.30;;
11572;SDS011;5842;52.426;4.886;2023-04-01T01:34:19;24.00;;;13.43;;
11572;SDS011;5842;52.426;4.886;2023-04-01T01:36:50;25.07;;;13.43;;
11572;SDS011;5842;52.426;4.886;2023-04-01T01:39:20;20.47;;;12.43;;
11572;SDS011;5842;52.426;4.886;2023-04-01T01:41:52;22.83;;;12.33;;
11572;SDS011;5842;52.426;4.886;2023-04-01T01:44:21;24.40;;;11.87;;
11572;SDS011;5842;52.426;4.886;2023-04-01T01:46:50;20.60;;;10.10;;
11572;SDS011;5842;52.426;4.886;2023-04-01T01:49:17;23.43;;;11.30;;
11572;SDS011;5842;52.426;4.886;2023-04-01T01:51:45;19.77;;;10.47;;
11572;SDS011;5842;52.426;4.886;2023-04-01T01:54:15;28.57;;;9.63;;
11572;SDS011;5842;52.426;4.886;2023-04-01T01:56:43;29.90;;;10.83;;
11572;SDS011;5842;52.426;4.886;2023-04-01T01:59:11;31.63;;;10.43;;
11572;SDS011;5842;52.426;4.886;2023-04-01T02:01:41;25.50;;;10.57;;
11572;SDS011;5842;52.426;4.886;2023-04-01T02:04:13;23.63;;;10.53;;
11572;SDS011;5842;52.426;4.886;2023-04-01T02:06:42;29.40;;;10.70;;
11572;SDS011;5842;52.426;4.886;2023-04-01T02:09:11;28.20;;;10.77;;
11572;SDS011;5842;52.426;4.886;2023-04-01T02:11:41;32.00;;;11.83;;
11572;SDS011;5842;52.426;4.886;2023-04-01T02:14:10;31.60;;;12.30;;
11572;SDS011;5842;52.426;4.886;2023-04-01T02:16:42;32.57;;;12.17;;
11572;SDS011;5842;52.426;4.886;2023-04-01T02:19:11;30.33;;;13.33;;
11572;SDS011;5842;52.426;4.886;2023-04-01T02:21:39;29.53;;;11.43;;
11572;SDS011;5842;52.426;4.886;2023-04-01T02:24:08;31.43;;;12.40;;
11572;SDS011;5842;52.426;4.886;2023-04-01T02:26:37;29.83;;;11.77;;
11572;SDS011;5842;52.426;4.886;2023-04-01T02:29:06;23.67;;;11.03;;
11572;SDS011;5842;52.426;4.886;2023-04-01T02:31:35;26.60;;;10.80;;
11572;SDS011;5842;52.426;4.886;2023-04-01T02:34:03;26.33;;;11.60;;
11572;SDS011;5842;52.426;4.886;2023-04-01T02:36:34;23.10;;;11.40;;
11572;SDS011;5842;52.426;4.886;2023-04-01T02:39:02;27.37;;;12.33;;
11572;SDS011;5842;52.426;4.886;2023-04-01T02:41:30;27.77;;;11.77;;
11572;SDS011;5842;52.426;4.886;2023-04-01T02:44:32;20.60;;;11.07;;
11572;SDS011;5842;52.426;4.886;2023-04-01T02:47:01;22.93;;;11.13;;
11572;SDS011;5842;52.426;4.886;2023-04-01T02:49:41;21.47;;;10.33;;
11572;SDS011;5842;52.426;4.886;2023-04-01T02:52:30;18.20;;;9.47;;
11572;SDS011;5842;52.426;4.886;2023-04-01T02:55:08;14.67;;;8.30;;
11572;SDS011;5842;52.426;4.886;2023-04-01T02:57:37;15.47;;;8.50;;
11572;SDS011;5842;52.426;4.886;2023-04-01T03:08:56;14.67;;;8.17;;
11572;SDS011;5842;52.426;4.886;2023-04-01T03:17:34;16.80;;;9.10;;
11572;SDS011;5842;52.426;4.886;2023-04-01T03:20:02;15.50;;;9.10;;
11572;SDS011;5842;52.426;4.886;2023-04-01T03:22:30;17.53;;;9.77;;
11572;SDS011;5842;52.426;4.886;2023-04-01T03:24:59;18.40;;;10.50;;
11572;SDS011;5842;52.426;4.886;2023-04-01T03:27:26;17.40;;;10.57;;
11572;SDS011;5842;52.426;4.886;2023-04-01T03:29:54;19.70;;;10.63;;
11572;SDS011;5842;52.426;4.886;2023-04-01T03:32:21;18.57;;;10.07;;
11572;SDS011;5842;52.426;4.886;2023-04-01T03:34:48;16.23;;;9.50;;
11572;SDS011;5842;52.426;4.886;2023-04-01T03:37:16;16.67;;;9.77;;
11572;SDS011;5842;52.426;4.886;2023-04-01T03:39:43;17.50;;;9.87;;
11572;SDS011;5842;52.426;4.886;2023-04-01T03:42:12;17.10;;;10.13;;
11572;SDS011;5842;52.426;4.886;2023-04-01T03:44:40;16.03;;;9.43;;
11572;SDS011;5842;52.426;4.886;2023-04-01T03:47:08;16.53;;;9.57;;
11572;SDS011;5842;52.426;4.886;2023-04-01T03:49:35;17.03;;;9.50;;
11572;SDS011;5842;52.426;4.886;2023-04-01T03:52:03;17.27;;;9.73;;
11572;SDS011;5842;52.426;4.886;2023-04-01T03:54:30;16.87;;;9.53;;
11572;SDS011;5842;52.426;4.886;2023-04-01T03:56:59;16.50;;;9.53;;
11572;SDS011;5842;52.426;4.886;2023-04-01T03:59:27;17.30;;;9.83;;
11572;SDS011;5842;52.426;4.886;2023-04-01T04:01:55;18.03;;;9.70;;
11572;SDS011;5842;52.426;4.886;2023-04-01T04:04:22;16.63;;;9.50;;
11572;SDS011;5842;52.426;4.886;2023-04-01T04:06:51;16.53;;;9.57;;
11572;SDS011;5842;52.426;4.886;2023-04-01T04:09:19;16.70;;;9.80;;
11572;SDS011;5842;52.426;4.886;2023-04-01T04:11:46;15.67;;;8.97;;
11572;SDS011;5842;52.426;4.886;2023-04-01T04:14:14;17.27;;;9.40;;
11572;SDS011;5842;52.426;4.886;2023-04-01T04:16:44;15.67;;;9.33;;
11572;SDS011;5842;52.426;4.886;2023-04-01T04:19:11;15.47;;;9.50;;
11572;SDS011;5842;52.426;4.886;2023-04-01T04:21:39;16.53;;;9.57;;
11572;SDS011;5842;52.426;4.886;2023-04-01T04:24:07;15.63;;;8.70;;
11572;SDS011;5842;52.426;4.886;2023-04-01T04:26:34;16.73;;;9.07;;
11572;SDS011;5842;52.426;4.886;2023-04-01T04:29:02;15.13;;;9.00;;
11572;SDS011;5842;52.426;4.886;2023-04-01T04:31:29;14.90;;;8.87;;
11572;SDS011;5842;52.426;4.886;2023-04-01T04:33:58;16.33;;;9.47;;
11572;SDS011;5842;52.426;4.886;2023-04-01T04:36:26;16.03;;;9.07;;
11572;SDS011;5842;52.426;4.886;2023-04-01T04:38:54;14.17;;;7.90;;
11572;SDS011;5842;52.426;4.886;2023-04-01T04:41:23;14.00;;;8.47;;
11572;SDS011;5842;52.426;4.886;2023-04-01T04:43:51;14.10;;;8.37;;
11572;SDS011;5842;52.426;4.886;2023-04-01T04:46:19;16.43;;;8.30;;
11572;SDS011;5842;52.426;4.886;2023-04-01T04:48:47;13.57;;;8.10;;
11572;SDS011;5842;52.426;4.886;2023-04-01T04:51:17;17.43;;;8.50;;
11572;SDS011;5842;52.426;4.886;2023-04-01T04:53:45;13.20;;;8.50;;
11572;SDS011;5842;52.426;4.886;2023-04-01T04:56:12;14.37;;;8.30;;
11572;SDS011;5842;52.426;4.886;2023-04-01T04:58:40;14.57;;;8.63;;
11572;SDS011;5842;52.426;4.886;2023-04-01T05:01:08;14.13;;;8.13;;
11572;SDS011;5842;52.426;4.886;2023-04-01T05:03:36;15.43;;;8.60;;
11572;SDS011;5842;52.426;4.886;2023-04-01T05:06:03;17.47;;;9.43;;
11572;SDS011;5842;52.426;4.886;2023-04-01T05:08:33;16.60;;;9.10;;
11572;SDS011;5842;52.426;4.886;2023-04-01T05:11:00;18.90;;;9.37;;
11572;SDS011;5842;52.426;4.886;2023-04-01T05:13:28;17.97;;;9.80;;
11572;SDS011;5842;52.426;4.886;2023-04-01T05:15:55;19.83;;;10.50;;
11572;SDS011;5842;52.426;4.886;2023-04-01T05:18:23;21.40;;;10.80;;
11572;SDS011;5842;52.426;4.886;2023-04-01T05:20:51;20.23;;;11.07;;
11572;SDS011;5842;52.426;4.886;2023-04-01T05:23:19;17.17;;;10.57;;
11572;SDS011;5842;52.426;4.886;2023-04-01T05:25:48;20.57;;;11.10;;
11572;SDS011;5842;52.426;4.886;2023-04-01T05:28:16;21.53;;;11.30;;
11572;SDS011;5842;52.426;4.886;2023-04-01T05:30:43;19.10;;;10.03;;
11572;SDS011;5842;52.426;4.886;2023-04-01T05:33:12;20.77;;;11.60;;
11572;SDS011;5842;52.426;4.886;2023-04-01T05:35:39;21.63;;;11.37;;
11572;SDS011;5842;52.426;4.886;2023-04-01T05:38:10;20.40;;;12.00;;
11572;SDS011;5842;52.426;4.886;2023-04-01T05:40:38;24.97;;;12.40;;
11572;SDS011;5842;52.426;4.886;2023-04-01T05:43:07;27.53;;;13.17;;
11572;SDS011;5842;52.426;4.886;2023-04-01T05:45:34;29.87;;;13.93;;
11572;SDS011;5842;52.426;4.886;2023-04-01T05:48:02;29.23;;;13.43;;
11572;SDS011;5842;52.426;4.886;2023-04-01T05:50:29;29.60;;;14.43;;
11572;SDS011;5842;52.426;4.886;2023-04-01T05:52:56;31.73;;;14.70;;
11572;SDS011;5842;52.426;4.886;2023-04-01T05:55:24;29.30;;;14.27;;
11572;SDS011;5842;52.426;4.886;2023-04-01T05:57:51;30.67;;;15.33;;
11572;SDS011;5842;52.426;4.886;2023-04-01T06:00:20;30.53;;;14.20;;
11572;SDS011;5842;52.426;4.886;2023-04-01T06:02:49;31.57;;;15.27;;
11572;SDS011;5842;52.426;4.886;2023-04-01T06:05:18;26.70;;;13.53;;
11572;SDS011;5842;52.426;4.886;2023-04-01T06:07:46;28.63;;;14.40;;
11572;SDS011;5842;52.426;4.886;2023-04-01T06:10:14;30.77;;;13.70;;
11572;SDS011;5842;52.426;4.886;2023-04-01T06:12:47;28.33;;;13.50;;
11572;SDS011;5842;52.426;4.886;2023-04-01T06:15:30;29.80;;;12.80;;
11572;SDS011;5842;52.426;4.886;2023-04-01T06:18:03;28.00;;;12.50;;
11572;SDS011;5842;52.426;4.886;2023-04-01T06:20:39;27.17;;;13.33;;
11572;SDS011;5842;52.426;4.886;2023-04-01T06:23:12;29.67;;;12.93;;
11572;SDS011;5842;52.426;4.886;2023-04-01T06:25:43;28.03;;;12.87;;
11572;SDS011;5842;52.426;4.886;2023-04-01T06:31:15;28.70;;;12.47;;
11572;SDS011;5842;52.426;4.886;2023-04-01T06:33:47;31.80;;;13.27;;
11572;SDS011;5842;52.426;4.886;2023-04-01T06:36:37;29.00;;;12.40;;
11572;SDS011;5842;52.426;4.886;2023-04-01T06:39:10;25.73;;;11.73;;
11572;SDS011;5842;52.426;4.886;2023-04-01T06:44:32;32.00;;;13.30;;
11572;SDS011;5842;52.426;4.886;2023-04-01T06:47:04;26.30;;;11.93;;
11572;SDS011;5842;52.426;4.886;2023-04-01T06:49:41;28.10;;;13.20;;
11572;SDS011;5842;52.426;4.886;2023-04-01T06:52:13;27.67;;;12.57;;
11572;SDS011;5842;52.426;4.886;2023-04-01T06:54:43;36.40;;;14.10;;
11572;SDS011;5842;52.426;4.886;2023-04-01T06:57:15;35.30;;;14.87;;
11572;SDS011;5842;52.426;4.886;2023-04-01T06:59:45;37.13;;;14.30;;
11572;SDS011;5842;52.426;4.886;2023-04-01T07:02:18;31.03;;;14.00;;
11572;SDS011;5842;52.426;4.886;2023-04-01T07:04:50;35.33;;;15.10;;
11572;SDS011;5842;52.426;4.886;2023-04-01T07:07:21;32.87;;;14.10;;
11572;SDS011;5842;52.426;4.886;2023-04-01T07:09:50;29.77;;;12.37;;
11572;SDS011;5842;52.426;4.886;2023-04-01T07:12:19;32.10;;;13.20;;
11572;SDS011;5842;52.426;4.886;2023-04-01T07:14:48;32.20;;;13.87;;
11572;SDS011;5842;52.426;4.886;2023-04-01T07:17:19;30.27;;;13.67;;
11572;SDS011;5842;52.426;4.886;2023-04-01T07:19:51;32.87;;;13.30;;
11572;SDS011;5842;52.426;4.886;2023-04-01T07:38:13;28.20;;;12.23;;
11572;SDS011;5842;52.426;4.886;2023-04-01T07:40:45;28.63;;;12.10;;
11572;SDS011;5842;52.426;4.886;2023-04-01T07:43:17;25.73;;;13.10;;
11572;SDS011;5842;52.426;4.886;2023-04-01T07:45:50;23.60;;;12.83;;
11572;SDS011;5842;52.426;4.886;2023-04-01T07:48:25;28.50;;;12.90;;
11572;SDS011;5842;52.426;4.886;2023-04-01T07:50:57;32.97;;;12.93;;
11572;SDS011;5842;52.426;4.886;2023-04-01T07:53:29;27.63;;;11.97;;
11572;SDS011;5842;52.426;4.886;2023-04-01T07:56:00;26.20;;;11.97;;
11572;SDS011;5842;52.426;4.886;2023-04-01T07:58:30;24.43;;;11.93;;
11572;SDS011;5842;52.426;4.886;2023-04-01T08:01:01;21.73;;;11.60;;
11572;SDS011;5842;52.426;4.886;2023-04-01T08:03:38;22.50;;;11.37;;
11572;SDS011;5842;52.426;4.886;2023-04-01T08:06:12;22.97;;;11.13;;
11572;SDS011;5842;52.426;4.886;2023-04-01T08:08:45;24.43;;;10.80;;
11572;SDS011;5842;52.426;4.886;2023-04-01T08:11:20;24.87;;;11.80;;
11572;SDS011;5842;52.426;4.886;2023-04-01T08:13:50;23.47;;;10.83;;
11572;SDS011;5842;52.426;4.886;2023-04-01T08:16:23;22.53;;;11.20;;
11572;SDS011;5842;52.426;4.886;2023-04-01T08:18:55;18.83;;;10.60;;
11572;SDS011;5842;52.426;4.886;2023-04-01T08:21:27;16.43;;;9.43;;
11572;SDS011;5842;52.426;4.886;2023-04-01T08:23:57;20.03;;;10.13;;
11572;SDS011;5842;52.426;4.886;2023-04-01T08:26:29;16.13;;;9.80;;
11572;SDS011;5842;52.426;4.886;2023-04-01T08:28:59;18.20;;;8.93;;
11572;SDS011;5842;52.426;4.886;2023-04-01T08:31:30;13.10;;;8.20;;
11572;SDS011;5842;52.426;4.886;2023-04-01T08:33:59;16.20;;;8.57;;
11572;SDS011;5842;52.426;4.886;2023-04-01T08:36:28;16.10;;;8.77;;
11572;SDS011;5842;52.426;4.886;2023-04-01T08:38:59;14.00;;;7.93;;
11572;SDS011;5842;52.426;4.886;2023-04-01T08:47:33;15.63;;;8.43;;
11572;SDS011;5842;52.426;4.886;2023-04-01T08:52:52;11.40;;;7.13;;
11572;SDS011;5842;52.426;4.886;2023-04-01T08:55:27;11.67;;;7.77;;
11572;SDS011;5842;52.426;4.886;2023-04-01T08:58:02;14.10;;;8.00;;
11572;SDS011;5842;52.426;4.886;2023-04-01T09:00:36;12.23;;;8.43;;
11572;SDS011;5842;52.426;4.886;2023-04-01T09:08:31;14.67;;;9.30;;
11572;SDS011;5842;52.426;4.886;2023-04-01T09:11:13;16.93;;;9.77;;
11572;SDS011;5842;52.426;4.886;2023-04-01T09:16:38;19.67;;;10.30;;
11572;SDS011;5842;52.426;4.886;2023-04-01T09:19:17;18.90;;;11.80;;
11572;SDS011;5842;52.426;4.886;2023-04-01T09:21:50;19.80;;;10.63;;
11572;SDS011;5842;52.426;4.886;2023-04-01T09:24:35;18.93;;;11.27;;
11572;SDS011;5842;52.426;4.886;2023-04-01T09:27:11;18.73;;;10.70;;
11572;SDS011;5842;52.426;4.886;2023-04-01T09:29:50;19.33;;;11.37;;
11572;SDS011;5842;52.426;4.886;2023-04-01T09:32:34;20.70;;;11.73;;
11572;SDS011;5842;52.426;4.886;2023-04-01T09:35:10;24.57;;;14.00;;
11572;SDS011;5842;52.426;4.886;2023-04-01T09:37:45;18.33;;;10.33;;
11572;SDS011;5842;52.426;4.886;2023-04-01T09:40:17;17.57;;;10.00;;
11572;SDS011;5842;52.426;4.886;2023-04-01T09:42:53;14.33;;;8.90;;
11572;SDS011;5842;52.426;4.886;2023-04-01T09:45:33;14.20;;;8.80;;
11572;SDS011;5842;52.426;4.886;2023-04-01T09:48:05;12.73;;;7.47;;
11572;SDS011;5842;52.426;4.886;2023-04-01T09:50:36;11.27;;;7.07;;
11572;SDS011;5842;52.426;4.886;2023-04-01T09:53:09;11.77;;;7.17;;
11572;SDS011;5842;52.426;4.886;2023-04-01T09:55:50;13.90;;;7.40;;
11572;SDS011;5842;52.426;4.886;2023-04-01T10:07:10;11.10;;;6.30;;
11572;SDS011;5842;52.426;4.886;2023-04-01T10:09:55;10.87;;;6.47;;
11572;SDS011;5842;52.426;4.886;2023-04-01T10:12:34;10.23;;;6.37;;
11572;SDS011;5842;52.426;4.886;2023-04-01T10:23:22;11.73;;;7.30;;
11572;SDS011;5842;52.426;4.886;2023-04-01T10:26:02;11.97;;;7.57;;
11572;SDS011;5842;52.426;4.886;2023-04-01T10:28:45;12.67;;;8.27;;
11572;SDS011;5842;52.426;4.886;2023-04-01T10:34:08;13.53;;;8.57;;
11572;SDS011;5842;52.426;4.886;2023-04-01T10:36:41;12.30;;;8.50;;
11572;SDS011;5842;52.426;4.886;2023-04-01T10:50:26;15.73;;;9.13;;
11572;SDS011;5842;52.426;4.886;2023-04-01T10:55:48;15.53;;;9.63;;
11572;SDS011;5842;52.426;4.886;2023-04-01T11:01:17;15.30;;;9.60;;
11572;SDS011;5842;52.426;4.886;2023-04-01T11:09:31;15.57;;;9.17;;
11572;SDS011;5842;52.426;4.886;2023-04-01T11:12:21;13.07;;;8.53;;
11572;SDS011;5842;52.426;4.886;2023-04-01T11:20:56;10.37;;;7.40;;
11572;SDS011;5842;52.426;4.886;2023-04-01T11:23:33;9.93;;;7.30;;
11572;SDS011;5842;52.426;4.886;2023-04-01T11:26:09;10.07;;;7.70;;
11572;SDS011;5842;52.426;4.886;2023-04-01T11:28:51;12.33;;;8.13;;
11572;SDS011;5842;52.426;4.886;2023-04-01T11:31:35;11.13;;;7.90;;
11572;SDS011;5842;52.426;4.886;2023-04-01T11:34:07;14.00;;;9.50;;
11572;SDS011;5842;52.426;4.886;2023-04-01T11:36:47;13.50;;;8.93;;
11572;SDS011;5842;52.426;4.886;2023-04-01T11:39:20;14.87;;;9.80;;
11572;SDS011;5842;52.426;4.886;2023-04-01T11:41:55;14.40;;;9.83;;
11572;SDS011;5842;52.426;4.886;2023-04-01T11:44:24;14.90;;;10.10;;
11572;SDS011;5842;52.426;4.886;2023-04-01T11:46:56;14.70;;;10.53;;
11572;SDS011;5842;52.426;4.886;2023-04-01T11:49:33;15.33;;;10.63;;
11572;SDS011;5842;52.426;4.886;2023-04-01T11:52:10;17.73;;;11.00;;
11572;SDS011;5842;52.426;4.886;2023-04-01T11:57:50;15.87;;;10.37;;
11572;SDS011;5842;52.426;4.886;2023-04-01T12:00:30;16.73;;;10.60;;
11572;SDS011;5842;52.426;4.886;2023-04-01T12:03:08;17.07;;;10.87;;
11572;SDS011;5842;52.426;4.886;2023-04-01T12:05:38;17.90;;;10.83;;
11572;SDS011;5842;52.426;4.886;2023-04-01T12:08:11;18.37;;;11.90;;
11572;SDS011;5842;52.426;4.886;2023-04-01T12:10:41;18.63;;;11.40;;
11572;SDS011;5842;52.426;4.886;2023-04-01T12:13:16;19.67;;;11.90;;
11572;SDS011;5842;52.426;4.886;2023-04-01T12:15:51;20.43;;;12.13;;
11572;SDS011;5842;52.426;4.886;2023-04-01T12:18:22;15.73;;;10.97;;
11572;SDS011;5842;52.426;4.886;2023-04-01T12:20:54;17.20;;;11.17;;
11572;SDS011;5842;52.426;4.886;2023-04-01T12:23:42;19.87;;;11.47;;
11572;SDS011;5842;52.426;4.886;2023-04-01T12:26:19;17.07;;;11.40;;
11572;SDS011;5842;52.426;4.886;2023-04-01T12:28:58;14.90;;;10.90;;
11572;SDS011;5842;52.426;4.886;2023-04-01T12:31:27;16.30;;;10.03;;
11572;SDS011;5842;52.426;4.886;2023-04-01T12:34:13;16.50;;;10.37;;
11572;SDS011;5842;52.426;4.886;2023-04-01T12:36:47;16.73;;;10.90;;
11572;SDS011;5842;52.426;4.886;2023-04-01T12:39:22;16.30;;;10.70;;
11572;SDS011;5842;52.426;4.886;2023-04-01T12:41:59;17.77;;;10.50;;
11572;SDS011;5842;52.426;4.886;2023-04-01T12:44:36;12.77;;;8.90;;
11572;SDS011;5842;52.426;4.886;2023-04-01T12:47:19;13.17;;;8.57;;
11572;SDS011;5842;52.426;4.886;2023-04-01T12:50:06;10.23;;;7.07;;
11572;SDS011;5842;52.426;4.886;2023-04-01T12:52:43;9.83;;;6.33;;
11572;SDS011;5842;52.426;4.886;2023-04-01T12:55:17;9.57;;;7.00;;
11572;SDS011;5842;52.426;4.886;2023-04-01T12:57:53;10.03;;;7.47;;
11572;SDS011;5842;52.426;4.886;2023-04-01T13:00:34;11.73;;;8.07;;
11572;SDS011;5842;52.426;4.886;2023-04-01T13:03:12;10.40;;;7.60;;
11572;SDS011;5842;52.426;4.886;2023-04-01T13:05:49;10.47;;;7.90;;
11572;SDS011;5842;52.426;4.886;2023-04-01T13:08:24;11.87;;;8.17;;
11572;SDS011;5842;52.426;4.886;2023-04-01T13:11:00;11.57;;;7.50;;
11572;SDS011;5842;52.426;4.886;2023-04-01T13:13:48;11.50;;;8.40;;
11572;SDS011;5842;52.426;4.886;2023-04-01T13:16:20;12.23;;;8.70;;
11572;SDS011;5842;52.426;4.886;2023-04-01T13:18:53;11.60;;;8.27;;
11572;SDS011;5842;52.426;4.886;2023-04-01T13:21:24;12.50;;;7.83;;
11572;SDS011;5842;52.426;4.886;2023-04-01T13:23:55;12.30;;;8.67;;
11572;SDS011;5842;52.426;4.886;2023-04-01T13:26:27;10.40;;;7.07;;
11572;SDS011;5842;52.426;4.886;2023-04-01T13:28:57;9.50;;;7.13;;
11572;SDS011;5842;52.426;4.886;2023-04-01T13:31:36;9.73;;;7.13;;
11572;SDS011;5842;52.426;4.886;2023-04-01T13:34:09;9.33;;;7.13;;
11572;SDS011;5842;52.426;4.886;2023-04-01T13:36:44;12.40;;;7.30;;
11572;SDS011;5842;52.426;4.886;2023-04-01T13:39:28;10.67;;;7.73;;
11572;SDS011;5842;52.426;4.886;2023-04-01T13:42:01;13.73;;;7.73;;
11572;SDS011;5842;52.426;4.886;2023-04-01T13:44:33;11.40;;;7.67;;
11572;SDS011;5842;52.426;4.886;2023-04-01T13:47:06;11.10;;;7.80;;
11572;SDS011;5842;52.426;4.886;2023-04-01T13:52:33;11.27;;;7.60;;
11572;SDS011;5842;52.426;4.886;2023-04-01T13:55:22;12.30;;;8.13;;
11572;SDS011;5842;52.426;4.886;2023-04-01T13:57:59;12.50;;;8.20;;
11572;SDS011;5842;52.426;4.886;2023-04-01T14:00:32;12.57;;;8.60;;
11572;SDS011;5842;52.426;4.886;2023-04-01T14:05:51;14.43;;;8.50;;
11572;SDS011;5842;52.426;4.886;2023-04-01T14:08:26;13.53;;;8.10;;
11572;SDS011;5842;52.426;4.886;2023-04-01T14:10:59;11.90;;;8.37;;
11572;SDS011;5842;52.426;4.886;2023-04-01T14:13:31;12.67;;;9.17;;
11572;SDS011;5842;52.426;4.886;2023-04-01T14:16:07;14.57;;;8.70;;
11572;SDS011;5842;52.426;4.886;2023-04-01T14:18:53;14.93;;;8.43;;
11572;SDS011;5842;52.426;4.886;2023-04-01T14:21:31;12.07;;;8.33;;
11572;SDS011;5842;52.426;4.886;2023-04-01T14:24:03;14.37;;;9.33;;
11572;SDS011;5842;52.426;4.886;2023-04-01T14:26:44;13.97;;;8.93;;
11572;SDS011;5842;52.426;4.886;2023-04-01T14:29:19;16.07;;;9.20;;
11572;SDS011;5842;52.426;4.886;2023-04-01T14:31:54;13.67;;;8.80;;
11572;SDS011;5842;52.426;4.886;2023-04-01T14:34:31;13.27;;;8.70;;
11572;SDS011;5842;52.426;4.886;2023-04-01T14:37:05;15.13;;;8.73;;
11572;SDS011;5842;52.426;4.886;2023-04-01T14:42:35;11.33;;;8.03;;
11572;SDS011;5842;52.426;4.886;2023-04-01T14:48:03;12.43;;;7.63;;
11572;SDS011;5842;52.426;4.886;2023-04-01T14:50:40;11.30;;;8.00;;
11572;SDS011;5842;52.426;4.886;2023-04-01T14:53:13;12.83;;;8.20;;
11572;SDS011;5842;52.426;4.886;2023-04-01T14:55:48;13.70;;;7.87;;
11572;SDS011;5842;52.426;4.886;2023-04-01T14:58:17;10.03;;;7.17;;
11572;SDS011;5842;52.426;4.886;2023-04-01T15:00:48;11.30;;;7.73;;
11572;SDS011;5842;52.426;4.886;2023-04-01T15:03:17;10.20;;;7.23;;
11572;SDS011;5842;52.426;4.886;2023-04-01T15:05:46;10.00;;;7.23;;
11572;SDS011;5842;52.426;4.886;2023-04-01T15:08:18;12.17;;;7.27;;
11572;SDS011;5842;52.426;4.886;2023-04-01T15:10:58;10.23;;;7.07;;
11572;SDS011;5842;52.426;4.886;2023-04-01T15:13:40;10.13;;;6.77;;
11572;SDS011;5842;52.426;4.886;2023-04-01T15:16:14;10.30;;;6.87;;
11572;SDS011;5842;52.426;4.886;2023-04-01T15:18:45;10.00;;;6.70;;
11572;SDS011;5842;52.426;4.886;2023-04-01T15:21:18;10.07;;;6.33;;
11572;SDS011;5842;52.426;4.886;2023-04-01T15:23:54;11.03;;;6.70;;
11572;SDS011;5842;52.426;4.886;2023-04-01T15:26:29;12.93;;;7.27;;
11572;SDS011;5842;52.426;4.886;2023-04-01T15:29:03;9.77;;;6.23;;
11572;SDS011;5842;52.426;4.886;2023-04-01T15:31:34;8.47;;;6.70;;
11572;SDS011;5842;52.426;4.886;2023-04-01T15:34:15;10.60;;;7.20;;
11572;SDS011;5842;52.426;4.886;2023-04-01T15:36:49;10.03;;;6.53;;
11572;SDS011;5842;52.426;4.886;2023-04-01T15:39:22;11.37;;;7.00;;
11572;SDS011;5842;52.426;4.886;2023-04-01T15:42:01;9.40;;;6.80;;
11572;SDS011;5842;52.426;4.886;2023-04-01T15:44:37;8.70;;;6.47;;
11572;SDS011;5842;52.426;4.886;2023-04-01T15:47:12;8.87;;;6.20;;
11572;SDS011;5842;52.426;4.886;2023-04-01T15:49:52;7.40;;;6.53;;
11572;SDS011;5842;52.426;4.886;2023-04-01T15:52:24;14.43;;;6.93;;
11572;SDS011;5842;52.426;4.886;2023-04-01T15:55:09;8.73;;;6.23;;
11572;SDS011;5842;52.426;4.886;2023-04-01T15:57:44;9.13;;;5.93;;
11572;SDS011;5842;52.426;4.886;2023-04-01T16:00:25;8.30;;;5.77;;
11572;SDS011;5842;52.426;4.886;2023-04-01T16:02:58;8.90;;;5.80;;
11572;SDS011;5842;52.426;4.886;2023-04-01T16:05:37;7.83;;;6.10;;
11572;SDS011;5842;52.426;4.886;2023-04-01T16:08:14;7.20;;;6.03;;
11572;SDS011;5842;52.426;4.886;2023-04-01T16:10:49;6.37;;;5.70;;
11572;SDS011;5842;52.426;4.886;2023-04-01T16:13:22;9.93;;;5.83;;
11572;SDS011;5842;52.426;4.886;2023-04-01T16:15:53;8.27;;;5.87;;
11572;SDS011;5842;52.426;4.886;2023-04-01T16:18:30;10.80;;;6.57;;
11572;SDS011;5842;52.426;4.886;2023-04-01T16:21:00;8.37;;;5.83;;
11572;SDS011;5842;52.426;4.886;2023-04-01T16:23:30;9.53;;;6.13;;
11572;SDS011;5842;52.426;4.886;2023-04-01T16:26:05;7.93;;;6.00;;
11572;SDS011;5842;52.426;4.886;2023-04-01T16:28:34;6.57;;;5.87;;
11572;SDS011;5842;52.426;4.886;2023-04-01T16:31:04;6.77;;;5.40;;
11572;SDS011;5842;52.426;4.886;2023-04-01T16:33:39;6.03;;;5.30;;
11572;SDS011;5842;52.426;4.886;2023-04-01T16:36:10;7.27;;;5.70;;
11572;SDS011;5842;52.426;4.886;2023-04-01T16:38:40;7.90;;;6.00;;
11572;SDS011;5842;52.426;4.886;2023-04-01T16:41:14;6.50;;;5.27;;
11572;SDS011;5842;52.426;4.886;2023-04-01T16:43:44;7.30;;;5.70;;
11572;SDS011;5842;52.426;4.886;2023-04-01T16:46:16;6.50;;;5.40;;
11572;SDS011;5842;52.426;4.886;2023-04-01T16:48:50;6.83;;;6.07;;
11572;SDS011;5842;52.426;4.886;2023-04-01T16:51:19;7.30;;;5.60;;
11572;SDS011;5842;52.426;4.886;2023-04-01T16:53:48;7.67;;;6.37;;
11572;SDS011;5842;52.426;4.886;2023-04-01T16:56:20;7.17;;;6.33;;
11572;SDS011;5842;52.426;4.886;2023-04-01T16:58:56;7.23;;;6.40;;
11572;SDS011;5842;52.426;4.886;2023-04-01T17:01:27;9.43;;;6.47;;
11572;SDS011;5842;52.426;4.886;2023-04-01T17:03:57;7.10;;;6.17;;
11572;SDS011;5842;52.426;4.886;2023-04-01T17:06:28;7.13;;;6.30;;
11572;SDS011;5842;52.426;4.886;2023-04-01T17:09:04;8.03;;;6.50;;
11572;SDS011;5842;52.426;4.886;2023-04-01T17:11:37;10.67;;;7.07;;
11572;SDS011;5842;52.426;4.886;2023-04-01T17:14:09;8.53;;;6.70;;
11572;SDS011;5842;52.426;4.886;2023-04-01T17:19:34;10.17;;;6.50;;
11572;SDS011;5842;52.426;4.886;2023-04-01T17:22:07;7.67;;;6.30;;